createdAt,value
2018-05-15T00:00:13.808Z,50.25
2018-05-15T00:02:39.665Z,50.27
2018-05-15T00:05:05.553Z,50.25
2018-05-15T00:07:31.413Z,50.43
2018-05-15T00:09:57.296Z,50.29
2018-05-15T00:12:23.185Z,50.26
2018-05-15T00:14:49.029Z,50.10
2018-05-15T00:17:14.885Z,50.34
2018-05-15T00:19:40.717Z,50.54
2018-05-15T00:22:06.612Z,50.40
2018-05-15T00:24:32.458Z,50.48
2018-05-15T00:26:58.325Z,50.51
2018-05-15T00:29:24.202Z,51.05
2018-05-15T00:31:50.089Z,51.09
2018-05-15T00:34:15.956Z,51.27
2018-05-15T00:36:41.786Z,50.97
2018-05-15T00:39:07.623Z,51.08
2018-05-15T00:41:33.438Z,51.38
2018-05-15T00:43:59.321Z,51.43
2018-05-15T00:46:25.171Z,51.75
2018-05-15T00:48:51.161Z,51.86
2018-05-15T00:51:17.032Z,51.83
2018-05-15T00:53:42.892Z,52.13
2018-05-15T00:56:08.749Z,52.14
2018-05-15T00:58:34.593Z,52.20
2018-05-15T01:01:00.476Z,52.04
2018-05-15T01:03:26.385Z,52.44
2018-05-15T01:05:52.250Z,52.76
2018-05-15T01:08:18.129Z,52.54
2018-05-15T01:10:43.987Z,52.57
2018-05-15T01:13:09.853Z,52.81
2018-05-15T01:15:35.700Z,53.46
2018-05-15T01:18:01.560Z,53.53
2018-05-15T01:20:27.417Z,53.36
2018-05-15T01:22:53.245Z,53.56
2018-05-15T01:25:19.109Z,53.71
2018-05-15T01:27:44.973Z,53.84
2018-05-15T01:30:10.869Z,53.75
2018-05-15T01:32:36.737Z,54.12
2018-05-15T01:35:02.772Z,54.06
2018-05-15T01:37:28.613Z,54.30
2018-05-15T01:39:54.474Z,54.46
2018-05-15T01:42:20.360Z,54.44
2018-05-15T01:44:46.217Z,54.41
2018-05-15T01:47:12.101Z,54.41
2018-05-15T01:49:37.971Z,54.64
2018-05-15T01:52:03.863Z,54.62
2018-05-15T01:54:29.746Z,54.60
2018-05-15T01:56:55.601Z,54.65
2018-05-15T01:59:21.436Z,54.31
2018-05-15T02:01:47.319Z,54.50
2018-05-15T02:04:13.173Z,54.78
2018-05-15T02:06:39.034Z,55.10
2018-05-15T02:09:04.930Z,55.29
2018-05-15T02:11:30.801Z,55.33
2018-05-15T02:13:56.652Z,55.97
2018-05-15T02:16:22.499Z,55.96
2018-05-15T02:18:48.326Z,55.99
2018-05-15T02:21:14.190Z,55.94
2018-05-15T02:23:40.084Z,55.81
2018-05-15T02:26:05.930Z,56.05
2018-05-15T02:28:31.772Z,55.75
2018-05-15T02:30:57.646Z,55.75
2018-05-15T02:33:23.494Z,55.42
2018-05-15T02:35:49.360Z,55.42
2018-05-15T02:38:15.190Z,55.76
2018-05-15T02:40:41.076Z,55.58
2018-05-15T02:43:06.925Z,55.69
2018-05-15T02:45:32.817Z,55.44
2018-05-15T02:47:58.698Z,55.61
2018-05-15T02:50:24.544Z,55.62
2018-05-15T02:52:50.368Z,55.81
2018-05-15T02:55:16.242Z,55.64
2018-05-15T02:57:42.105Z,55.44
2018-05-15T03:00:07.995Z,55.79
2018-05-15T03:02:33.838Z,55.85
2018-05-15T03:04:59.723Z,56.17
2018-05-15T03:07:25.556Z,56.12
2018-05-15T03:09:51.428Z,56.35
2018-05-15T03:12:17.285Z,56.22
2018-05-15T03:14:43.141Z,56.18
2018-05-15T03:17:08.977Z,56.30
2018-05-15T03:19:34.828Z,56.26
2018-05-15T03:22:00.672Z,56.46
2018-05-15T03:24:26.501Z,56.20
2018-05-15T03:26:52.385Z,56.03
2018-05-15T03:29:18.204Z,56.55
2018-05-15T03:31:44.090Z,57.35
2018-05-15T03:34:09.938Z,57.20
2018-05-15T03:36:35.802Z,57.51
2018-05-15T03:39:01.657Z,57.67
2018-05-15T03:41:27.559Z,57.30
2018-05-15T03:43:53.434Z,58.25
2018-05-15T03:46:19.296Z,58.65
2018-05-15T03:48:45.191Z,59.38
2018-05-15T03:51:11.065Z,58.94
2018-05-15T03:53:36.914Z,58.64
2018-05-15T03:56:02.768Z,58.07
2018-05-15T03:58:28.624Z,58.18
2018-05-15T04:01:06.881Z,59.27
2018-05-15T04:03:45.121Z,58.51
2018-05-15T04:06:23.265Z,57.87
2018-05-15T04:08:49.133Z,58.28
2018-05-15T04:11:15.013Z,57.82
2018-05-15T04:13:42.746Z,60.05
2018-05-15T04:16:08.803Z,60.92
2018-05-15T04:18:34.681Z,58.85
2018-05-15T04:21:00.548Z,58.35
2018-05-15T04:23:26.440Z,58.69
2018-05-15T04:25:52.303Z,59.27
2018-05-15T04:28:18.316Z,58.47
2018-05-15T04:30:44.078Z,58.29
2018-05-15T04:33:09.948Z,57.50
2018-05-15T04:35:35.797Z,57.94
2018-05-15T04:38:01.638Z,57.13
2018-05-15T04:40:27.489Z,56.48
2018-05-15T04:42:53.363Z,56.34
2018-05-15T04:45:19.233Z,56.57
2018-05-15T04:47:45.066Z,56.71
2018-05-15T04:50:10.913Z,55.77
2018-05-15T04:52:36.770Z,56.28
2018-05-15T04:55:02.690Z,55.96
2018-05-15T04:57:28.518Z,56.19
2018-05-15T04:59:54.364Z,55.38
2018-05-15T05:02:20.212Z,55.27
2018-05-15T05:04:46.091Z,54.34
2018-05-15T05:07:11.953Z,54.06
2018-05-15T05:09:37.812Z,55.40
2018-05-15T05:12:03.681Z,54.59
2018-05-15T05:14:29.568Z,55.16
2018-05-15T05:16:55.395Z,54.88
2018-05-15T05:19:21.280Z,55.15
2018-05-15T05:21:47.118Z,54.72
2018-05-15T05:24:12.982Z,54.88
2018-05-15T05:26:38.833Z,55.01
2018-05-15T05:29:04.706Z,55.04
2018-05-15T05:31:30.599Z,54.64
2018-05-15T05:33:56.433Z,53.50
2018-05-15T05:36:22.320Z,52.84
2018-05-15T05:38:48.180Z,53.34
2018-05-15T05:41:14.037Z,52.08
2018-05-15T05:43:39.876Z,51.23
2018-05-15T05:46:05.716Z,50.91
2018-05-15T05:48:31.614Z,51.36
2018-05-15T05:50:57.477Z,49.84
2018-05-15T05:53:23.359Z,49.08
2018-05-15T05:55:49.215Z,48.20
2018-05-15T05:58:15.116Z,48.70
2018-05-15T06:00:40.967Z,48.41
2018-05-15T06:03:06.828Z,48.01
2018-05-15T06:05:32.686Z,48.06
2018-05-15T06:07:58.547Z,48.34
2018-05-15T06:10:24.420Z,48.33
2018-05-15T06:12:50.276Z,46.52
2018-05-15T06:15:16.163Z,46.57
2018-05-15T06:17:42.005Z,47.19
2018-05-15T06:20:07.919Z,47.50
2018-05-15T06:22:33.775Z,46.13
2018-05-15T06:24:59.708Z,46.28
2018-05-15T06:27:25.560Z,45.98
2018-05-15T06:29:51.408Z,46.40
2018-05-15T06:32:17.285Z,46.58
2018-05-15T06:34:43.211Z,47.26
2018-05-15T06:37:09.064Z,46.49
2018-05-15T06:39:34.916Z,45.86
2018-05-15T06:42:00.776Z,45.20
2018-05-15T06:44:26.622Z,45.73
2018-05-15T06:46:52.475Z,45.39
2018-05-15T06:49:18.317Z,44.55
2018-05-15T06:51:44.165Z,43.92
2018-05-15T06:54:10.079Z,43.70
2018-05-15T06:56:35.956Z,43.32
2018-05-15T06:59:01.815Z,43.47
2018-05-15T07:01:27.693Z,41.88
2018-05-15T07:03:53.545Z,42.16
2018-05-15T07:06:19.405Z,42.27
2018-05-15T07:08:45.243Z,41.92
2018-05-15T07:11:11.134Z,41.74
2018-05-15T07:13:37.006Z,42.39
2018-05-15T07:16:02.867Z,42.38
2018-05-15T07:18:28.763Z,40.33
2018-05-15T07:20:54.635Z,39.73
2018-05-15T07:23:20.502Z,42.35
2018-05-15T07:25:46.361Z,40.73
2018-05-15T07:28:12.236Z,39.27
2018-05-15T07:30:38.128Z,39.14
2018-05-15T07:33:04.093Z,39.47
2018-05-15T07:35:29.840Z,38.80
2018-05-15T07:37:55.719Z,38.68
2018-05-15T07:40:21.664Z,38.53
2018-05-15T07:42:47.468Z,38.63
2018-05-15T07:45:13.344Z,39.60
2018-05-15T07:47:39.181Z,40.99
2018-05-15T07:50:05.209Z,41.56
2018-05-15T07:52:31.072Z,41.28
2018-05-15T07:54:56.948Z,40.97
2018-05-15T07:57:22.775Z,41.55
2018-05-15T07:59:48.601Z,41.76
2018-05-15T08:02:14.481Z,40.50
2018-05-15T08:04:40.360Z,40.64
2018-05-15T08:07:06.197Z,40.83
2018-05-15T08:09:32.052Z,39.46
2018-05-15T08:11:57.904Z,39.40
2018-05-15T08:14:23.731Z,40.11
2018-05-15T08:16:49.564Z,41.44
2018-05-15T08:19:15.508Z,39.98
2018-05-15T08:21:41.360Z,39.08
2018-05-15T08:24:07.227Z,37.85
2018-05-15T08:26:33.064Z,38.78
2018-05-15T08:28:58.918Z,41.25
2018-05-15T08:31:24.749Z,41.39
2018-05-15T08:33:50.642Z,41.05
2018-05-15T08:36:16.486Z,40.68
2018-05-15T08:38:42.336Z,40.15
2018-05-15T08:41:08.181Z,39.61
2018-05-15T08:43:34.016Z,38.28
2018-05-15T08:45:59.868Z,37.41
2018-05-15T08:48:25.719Z,38.01
2018-05-15T08:50:51.592Z,37.88
2018-05-15T08:53:17.461Z,38.63
2018-05-15T08:55:43.344Z,37.45
2018-05-15T08:58:09.208Z,36.79
2018-05-15T09:00:35.049Z,36.20
2018-05-15T09:03:00.902Z,37.32
2018-05-15T09:05:26.787Z,37.40
2018-05-15T09:07:52.625Z,37.24
2018-05-15T09:10:18.482Z,38.55
2018-05-15T09:12:44.344Z,38.75
2018-05-15T09:15:10.201Z,37.65
2018-05-15T09:17:36.040Z,36.56
2018-05-15T09:20:02.061Z,38.29
2018-05-15T09:22:27.919Z,38.51
2018-05-15T09:24:53.728Z,37.82
2018-05-15T09:27:19.613Z,36.61
2018-05-15T09:29:45.449Z,36.94
2018-05-15T09:32:18.208Z,38.22
2018-05-15T09:34:44.079Z,38.32
2018-05-15T09:37:09.958Z,39.19
2018-05-15T09:39:35.829Z,39.36
2018-05-15T09:42:01.698Z,39.61
2018-05-15T09:44:27.557Z,39.29
2018-05-15T09:46:53.481Z,38.47
2018-05-15T09:49:19.259Z,37.83
2018-05-15T09:51:45.100Z,37.97
2018-05-15T09:54:10.941Z,37.81
2018-05-15T09:56:36.784Z,38.66
2018-05-15T09:59:02.641Z,39.89
2018-05-15T10:01:28.468Z,37.71
2018-05-15T10:03:54.324Z,37.41
2018-05-15T10:06:20.156Z,36.74
2018-05-15T10:08:45.993Z,36.50
2018-05-15T10:11:11.845Z,35.61
2018-05-15T10:13:37.701Z,34.15
2018-05-15T10:16:03.558Z,34.35
2018-05-15T10:18:29.401Z,34.01
2018-05-15T10:20:55.275Z,34.29
2018-05-15T10:23:21.113Z,34.30
2018-05-15T10:25:46.999Z,34.13
2018-05-15T10:28:12.853Z,34.19
2018-05-15T10:30:38.760Z,33.14
2018-05-15T10:33:04.655Z,33.37
2018-05-15T10:35:30.532Z,32.28
2018-05-15T10:37:56.375Z,31.64
2018-05-15T10:40:22.200Z,30.84
2018-05-15T10:42:48.064Z,30.48
2018-05-15T10:45:13.888Z,31.16
2018-05-15T10:47:39.735Z,31.27
2018-05-15T10:50:05.596Z,31.59
2018-05-15T10:52:31.456Z,31.67
2018-05-15T10:54:57.333Z,32.68
2018-05-15T10:57:23.195Z,31.50
2018-05-15T10:59:49.025Z,30.66
2018-05-15T11:02:14.886Z,31.10
2018-05-15T11:04:40.717Z,31.25
2018-05-15T11:07:06.582Z,30.94
2018-05-15T11:09:32.449Z,31.02
2018-05-15T11:11:58.301Z,29.94
2018-05-15T11:14:24.157Z,29.54
2018-05-15T11:16:50.005Z,29.73
2018-05-15T11:19:28.281Z,28.85
2018-05-15T11:22:06.295Z,30.95
2018-05-15T11:24:44.426Z,32.73
2018-05-15T11:27:10.280Z,33.76
2018-05-15T11:29:36.133Z,35.00
2018-05-15T11:32:01.996Z,35.62
2018-05-15T11:34:27.880Z,37.36
2018-05-15T11:36:53.726Z,37.44
2018-05-15T11:39:19.613Z,41.53
2018-05-15T11:41:45.470Z,39.74
2018-05-15T11:44:11.316Z,40.04
2018-05-15T11:46:37.167Z,41.88
2018-05-15T11:49:03.944Z,40.17
2018-05-15T11:51:29.849Z,40.73
2018-05-15T11:53:54.796Z,42.20
2018-05-15T11:56:20.667Z,42.03
2018-05-15T11:58:46.484Z,40.58
2018-05-15T12:01:12.378Z,43.23
2018-05-15T12:03:38.243Z,45.97
2018-05-15T12:06:04.128Z,45.22
2018-05-15T12:08:29.981Z,47.39
2018-05-15T12:10:55.868Z,45.30
2018-05-15T12:13:21.685Z,47.65
2018-05-15T12:15:47.533Z,47.68
2018-05-15T12:18:13.381Z,47.32
2018-05-15T12:20:39.217Z,47.87
2018-05-15T12:23:05.081Z,47.77
2018-05-15T12:25:30.933Z,46.68
2018-05-15T12:27:56.787Z,43.24
2018-05-15T12:30:22.925Z,40.13
2018-05-15T12:32:48.794Z,37.39
2018-05-15T12:35:14.664Z,36.61
2018-05-15T12:37:40.537Z,37.67
2018-05-15T12:40:06.394Z,38.93
2018-05-15T12:42:32.257Z,40.06
2018-05-15T12:44:58.112Z,41.01
2018-05-15T12:47:23.964Z,39.70
2018-05-15T12:49:49.828Z,41.00
2018-05-15T12:52:15.706Z,41.69
2018-05-15T12:54:41.580Z,40.42
2018-05-15T12:57:07.444Z,39.10
2018-05-15T12:59:33.314Z,38.71
2018-05-15T13:01:59.163Z,38.66
2018-05-15T13:04:25.027Z,39.09
2018-05-15T13:06:50.889Z,38.29
2018-05-15T13:09:16.768Z,37.00
2018-05-15T13:11:42.605Z,40.26
2018-05-15T13:14:08.468Z,41.62
2018-05-15T13:16:34.305Z,40.20
2018-05-15T13:19:00.200Z,41.56
2018-05-15T13:21:26.065Z,41.68
2018-05-15T13:23:51.941Z,42.40
2018-05-15T13:26:17.799Z,43.58
2018-05-15T13:28:43.656Z,44.69
2018-05-15T13:31:09.557Z,46.83
2018-05-15T13:33:35.411Z,48.68
2018-05-15T13:36:01.269Z,48.20
2018-05-15T13:38:27.107Z,50.97
2018-05-15T13:40:52.967Z,50.26
2018-05-15T13:43:18.825Z,48.74
2018-05-15T13:45:44.678Z,49.29
2018-05-15T13:48:10.584Z,45.56
2018-05-15T13:50:36.531Z,44.84
2018-05-15T13:53:02.362Z,44.37
2018-05-15T13:55:28.262Z,45.16
2018-05-15T13:57:54.175Z,42.84
2018-05-15T14:00:20.036Z,42.85
2018-05-15T14:02:45.952Z,42.55
2018-05-15T14:05:11.832Z,42.81
2018-05-15T14:07:37.702Z,43.46
2018-05-15T14:10:03.756Z,43.27
2018-05-15T14:12:29.760Z,46.07
2018-05-15T14:14:55.515Z,46.76
2018-05-15T14:17:21.404Z,46.73
2018-05-15T14:19:47.266Z,44.99
2018-05-15T14:22:13.149Z,45.07
2018-05-15T14:24:39.041Z,44.79
2018-05-15T14:27:04.906Z,43.57
2018-05-15T14:29:30.784Z,43.46
2018-05-15T14:31:56.685Z,42.34
2018-05-15T14:34:22.614Z,43.61
2018-05-15T14:36:48.469Z,43.95
2018-05-15T14:39:14.356Z,43.49
2018-05-15T14:44:44.083Z,47.24
2018-05-15T14:47:09.980Z,45.95
2018-05-15T14:49:35.872Z,47.32
2018-05-15T14:52:01.718Z,49.42
2018-05-15T14:54:27.588Z,48.50
2018-05-15T14:56:53.492Z,49.33
2018-05-15T14:59:19.373Z,49.49
2018-05-15T15:01:52.181Z,51.35
2018-05-15T15:04:18.031Z,51.63
2018-05-15T15:06:43.885Z,52.86
2018-05-15T15:09:09.768Z,53.49
2018-05-15T15:11:35.657Z,52.98
2018-05-15T15:14:01.464Z,54.18
2018-05-15T15:16:27.312Z,54.10
2018-05-15T15:18:53.144Z,53.79
2018-05-15T15:21:19.022Z,53.16
2018-05-15T15:23:44.939Z,51.60
2018-05-15T15:26:10.783Z,53.00
2018-05-15T15:28:36.651Z,53.35
2018-05-15T15:31:02.521Z,53.45
2018-05-15T15:33:28.369Z,52.61
2018-05-15T15:35:54.242Z,51.49
2018-05-15T15:38:20.088Z,50.23
2018-05-15T15:40:46.024Z,48.08
2018-05-15T15:43:11.872Z,49.21
2018-05-15T15:45:37.704Z,49.83
2018-05-15T15:48:03.622Z,47.05
2018-05-15T15:50:29.458Z,46.34
2018-05-15T15:52:55.324Z,45.59
2018-05-15T15:55:21.174Z,45.30
2018-05-15T15:57:47.010Z,43.04
2018-05-15T16:00:12.849Z,44.65
2018-05-15T16:02:38.717Z,44.40
2018-05-15T16:05:04.634Z,45.08
2018-05-15T16:07:30.440Z,45.39
2018-05-15T16:09:56.510Z,45.90
2018-05-15T16:12:22.296Z,46.93
2018-05-15T16:14:48.212Z,47.47
2018-05-15T16:17:14.093Z,48.47
2018-05-15T16:19:39.923Z,47.77
2018-05-15T16:22:05.823Z,47.77
2018-05-15T16:24:31.664Z,48.94
2018-05-15T16:26:57.517Z,49.17
2018-05-15T16:29:23.383Z,49.25
2018-05-15T16:31:49.263Z,49.36
2018-05-15T16:34:15.149Z,49.52
2018-05-15T16:36:40.992Z,49.46
2018-05-15T16:39:06.879Z,50.37
2018-05-15T16:41:32.740Z,50.64
2018-05-15T16:43:58.598Z,50.58
2018-05-15T16:46:24.445Z,50.15
2018-05-15T16:48:50.300Z,50.18
2018-05-15T16:51:16.159Z,49.38
2018-05-15T16:53:42.015Z,49.84
2018-05-15T16:56:07.882Z,48.92
2018-05-15T16:58:33.759Z,49.52
2018-05-15T17:00:59.621Z,49.91
2018-05-15T17:03:25.502Z,50.40
2018-05-15T17:05:51.387Z,50.81
2018-05-15T17:08:17.399Z,51.35
2018-05-15T17:10:43.177Z,51.34
2018-05-15T17:13:09.074Z,50.95
2018-05-15T17:15:34.891Z,51.43
2018-05-15T17:18:00.769Z,51.87
2018-05-15T17:20:26.651Z,51.94
2018-05-15T17:22:52.512Z,52.28
2018-05-15T17:25:18.343Z,52.17
2018-05-15T17:27:44.197Z,52.83
2018-05-15T17:30:10.028Z,55.71
2018-05-15T17:32:35.868Z,58.07
2018-05-15T17:35:01.722Z,60.90
2018-05-15T17:37:27.616Z,62.18
2018-05-15T17:39:53.487Z,61.86
2018-05-15T17:42:19.349Z,62.30
2018-05-15T17:44:45.300Z,62.96
2018-05-15T17:47:11.147Z,62.82
2018-05-15T17:49:37.042Z,63.14
2018-05-15T17:52:02.922Z,63.84
2018-05-15T17:54:28.838Z,62.67
2018-05-15T17:56:54.695Z,63.69
2018-05-15T17:59:20.625Z,64.30
2018-05-15T18:01:46.467Z,64.62
2018-05-15T18:04:12.389Z,64.84
2018-05-15T18:06:38.246Z,62.94
2018-05-15T18:09:04.133Z,64.29
2018-05-15T18:11:29.993Z,65.10
2018-05-15T18:13:55.838Z,67.11
2018-05-15T18:16:21.724Z,66.77
2018-05-15T18:18:47.621Z,65.87
2018-05-15T18:21:13.512Z,66.51
2018-05-15T18:23:39.386Z,66.05
2018-05-15T18:26:05.324Z,67.68
2018-05-15T18:28:31.182Z,67.44
2018-05-15T18:30:57.045Z,67.76
2018-05-15T18:33:22.911Z,69.02
2018-05-15T18:35:48.792Z,68.28
2018-05-15T18:38:14.668Z,68.31
2018-05-15T18:40:40.544Z,68.39
2018-05-15T18:43:06.402Z,69.56
2018-05-15T18:45:32.293Z,69.51
2018-05-15T18:47:58.184Z,69.54
2018-05-15T18:50:24.143Z,70.23
2018-05-15T18:52:50.069Z,70.42
2018-05-15T18:55:15.993Z,71.63
2018-05-15T18:57:41.908Z,71.41
2018-05-15T19:00:07.755Z,71.39
2018-05-15T19:02:33.636Z,71.89
2018-05-15T19:04:59.492Z,72.45
2018-05-15T19:07:25.345Z,74.44
2018-05-15T19:09:51.210Z,74.63
2018-05-15T19:12:17.100Z,75.15
2018-05-15T19:14:42.953Z,76.47
2018-05-15T19:17:08.833Z,77.06
2018-05-15T19:19:34.762Z,76.79
2018-05-15T19:22:00.541Z,77.58
2018-05-15T19:24:26.437Z,78.36
2018-05-15T19:26:52.381Z,78.27
2018-05-15T19:29:18.181Z,77.09
2018-05-15T19:31:44.039Z,77.19
2018-05-15T19:34:15.845Z,77.48
2018-05-15T19:36:47.696Z,78.34
2018-05-15T19:39:13.542Z,77.62
2018-05-15T19:41:39.421Z,77.47
2018-05-15T19:44:05.300Z,78.30
2018-05-15T19:46:31.153Z,77.86
2018-05-15T19:48:57.021Z,78.58
2018-05-15T19:51:22.890Z,78.82
2018-05-15T19:53:48.748Z,78.35
2018-05-15T19:56:14.715Z,77.71
2018-05-15T19:58:40.591Z,78.04
2018-05-15T20:01:06.496Z,77.62
2018-05-15T20:03:32.447Z,78.01
2018-05-15T20:05:58.336Z,79.50
2018-05-15T20:08:24.221Z,79.62
2018-05-15T20:10:50.091Z,78.74
2018-05-15T20:13:16.037Z,79.34
2018-05-15T20:15:41.924Z,80.71
2018-05-15T20:18:07.821Z,82.31
2018-05-15T20:20:33.657Z,82.46
2018-05-15T20:22:59.549Z,82.71
2018-05-15T20:25:25.388Z,82.59
2018-05-15T20:27:51.274Z,82.29
2018-05-15T20:30:17.105Z,83.06
2018-05-15T20:32:42.948Z,83.67
2018-05-15T20:35:08.824Z,83.21
2018-05-15T20:37:34.625Z,83.02
2018-05-15T20:40:00.601Z,83.15
2018-05-15T20:42:26.518Z,83.69
2018-05-15T20:44:52.373Z,84.05
2018-05-15T20:47:18.235Z,84.11
2018-05-15T20:49:44.113Z,83.50
2018-05-15T20:52:10.013Z,83.94
2018-05-15T20:54:35.905Z,84.59
2018-05-15T20:57:01.764Z,84.30
2018-05-15T20:59:27.617Z,83.59
2018-05-15T21:01:53.626Z,82.83
2018-05-15T21:04:19.454Z,83.04
2018-05-15T21:06:45.297Z,83.28
2018-05-15T21:09:11.141Z,82.80
2018-05-15T21:11:37.029Z,82.60
2018-05-15T21:14:02.884Z,82.27
2018-05-15T21:16:28.760Z,82.53
2018-05-15T21:18:54.628Z,82.37
2018-05-15T21:21:20.496Z,82.64
2018-05-15T21:23:46.337Z,82.79
2018-05-15T21:26:12.189Z,84.50
2018-05-15T21:28:38.092Z,84.33
2018-05-15T21:31:03.965Z,84.69
2018-05-15T21:33:29.813Z,85.32
2018-05-15T21:35:55.689Z,84.54
2018-05-15T21:38:21.557Z,84.55
2018-05-15T21:40:47.576Z,85.90
2018-05-15T21:43:13.470Z,87.12
2018-05-15T21:45:39.361Z,87.01
2018-05-15T21:48:05.197Z,87.16
2018-05-15T21:50:31.069Z,87.49
2018-05-15T21:52:56.937Z,87.63
2018-05-15T21:55:22.840Z,87.82
2018-05-15T21:57:48.716Z,87.27
2018-05-15T22:00:14.557Z,88.18
2018-05-15T22:02:40.407Z,87.79
2018-05-15T22:05:06.284Z,87.89
2018-05-15T22:07:32.144Z,88.70
2018-05-15T22:09:58.004Z,88.67
2018-05-15T22:12:36.176Z,88.77
2018-05-15T22:15:14.293Z,88.33
2018-05-15T22:17:52.466Z,87.23
2018-05-15T22:20:30.643Z,87.58
2018-05-15T22:22:56.297Z,86.71
2018-05-15T22:25:22.149Z,86.13
2018-05-15T22:27:47.990Z,85.61
2018-05-15T22:30:13.817Z,85.53
2018-05-15T22:32:39.673Z,85.39
2018-05-15T22:35:05.513Z,86.09
2018-05-15T22:37:31.354Z,85.37
2018-05-15T22:39:57.308Z,85.22
2018-05-15T22:42:23.158Z,85.68
2018-05-15T22:44:48.977Z,85.24
2018-05-15T22:47:14.864Z,85.53
2018-05-15T22:49:40.724Z,86.01
2018-05-15T22:52:06.596Z,87.08
2018-05-15T22:54:32.454Z,87.62
2018-05-15T22:56:58.320Z,87.64
2018-05-15T22:59:24.197Z,87.60
2018-05-15T23:01:50.083Z,88.03
2018-05-15T23:04:15.937Z,88.01
2018-05-15T23:06:41.805Z,87.88
2018-05-15T23:09:07.637Z,87.65
2018-05-15T23:11:33.508Z,88.43
2018-05-15T23:13:59.369Z,87.83
2018-05-15T23:16:25.304Z,87.90
2018-05-15T23:18:51.192Z,88.31
2018-05-15T23:21:17.057Z,88.32
2018-05-15T23:23:42.946Z,87.29
2018-05-15T23:26:08.808Z,87.37
2018-05-15T23:28:34.662Z,88.43
2018-05-15T23:31:00.488Z,88.08
2018-05-15T23:33:26.336Z,87.97
2018-05-15T23:35:52.220Z,87.34
2018-05-15T23:38:18.118Z,87.85
2018-05-15T23:40:43.994Z,87.60
2018-05-15T23:43:09.841Z,87.80
2018-05-15T23:45:35.688Z,88.38
2018-05-15T23:48:01.514Z,87.82
2018-05-15T23:50:27.383Z,87.38
2018-05-15T23:52:53.260Z,87.31
2018-05-15T23:55:19.124Z,86.35
2018-05-15T23:57:44.958Z,86.69
